Time;durP1;ratioP1;P1;durP2;ratioP2;P2;SDS_P1;SDS_P2;PMS_P1;PMS_P2;Temp;Humidity;BMP_temperature;BMP_pressure;BME280_temperature;BME280_humidity;BME280_pressure;Samples;Min_cycle;Max_cycle;Signal;HPM_P1;HPM_P2
2023/10/29 00:02:07;;;;;;;12.93;6.43;;;9.20;99.90;;;;;;4968848;28;20200;-91
2023/10/29 00:04:35;;;;;;;12.80;6.77;;;9.20;99.90;;;;;;4977032;28;20527;-91
2023/10/29 00:07:04;;;;;;;8.73;5.80;;;9.10;99.90;;;;;;4992621;28;20191;-90
2023/10/29 00:09:30;;;;;;;11.70;6.43;;;9.10;99.90;;;;;;4980278;28;20302;-90
2023/10/29 00:11:57;;;;;;;7.50;5.97;;;9.10;99.90;;;;;;4996437;28;20823;-91
2023/10/29 00:15:04;;;;;;;7.77;5.73;;;9.00;99.90;;;;;;4996726;28;20215;-91
2023/10/29 00:17:32;;;;;;;7.23;5.43;;;9.00;99.90;;;;;;4980208;28;20198;-91
2023/10/29 00:19:59;;;;;;;12.10;5.73;;;9.00;99.90;;;;;;4996317;28;20644;-91
2023/10/29 00:22:27;;;;;;;10.07;5.70;;;9.00;99.90;;;;;;4996777;28;20260;-92
2023/10/29 00:24:53;;;;;;;8.60;5.93;;;9.00;99.90;;;;;;4989970;28;20679;-92
2023/10/29 00:27:19;;;;;;;8.97;5.53;;;9.00;99.90;;;;;;4978021;28;20195;-91
2023/10/29 00:30:08;;;;;;;7.13;5.80;;;9.00;99.90;;;;;;4980392;28;20199;-90
2023/10/29 00:32:34;;;;;;;10.47;6.10;;;8.90;99.90;;;;;;4988190;28;20210;-90
2023/10/29 00:35:00;;;;;;;8.37;5.57;;;8.90;99.90;;;;;;4979982;28;20180;-90
2023/10/29 00:37:26;;;;;;;10.20;5.87;;;8.80;99.90;;;;;;4963008;28;20188;-90
2023/10/29 00:39:55;;;;;;;7.80;6.23;;;8.90;99.90;;;;;;4996107;28;20293;-90
2023/10/29 00:42:31;;;;;;;10.17;6.77;;;8.90;99.90;;;;;;4978039;28;20707;-91
2023/10/29 00:44:59;;;;;;;8.77;6.60;;;8.80;99.90;;;;;;4980634;28;20332;-90
2023/10/29 00:47:25;;;;;;;10.33;6.37;;;8.90;99.90;;;;;;4995828;28;20266;-91
2023/10/29 00:49:52;;;;;;;8.73;6.07;;;8.90;99.90;;;;;;4995934;28;20206;-91
2023/10/29 00:52:58;;;;;;;8.87;5.90;;;8.90;99.90;;;;;;4979869;28;20346;-91
2023/10/29 00:59:55;;;;;;;;;;;;;;;;;;;;;
2023/10/29 01:02:46;;;;;;;7.47;5.27;;;9.00;99.90;;;;;;4999626;28;20245;-91
2023/10/29 01:05:34;;;;;;;8.60;5.80;;;9.00;99.90;;;;;;4978519;28;20282;-91
2023/10/29 01:08:13;;;;;;;7.77;5.50;;;9.00;99.90;;;;;;4996950;28;20186;-91
2023/10/29 01:18:55;;;;;;;;;;;;;;;;;;;;;
2023/10/29 01:25:59;;;;;;;7.53;5.87;;;9.00;99.90;;;;;;4858614;29;20343;-90
2023/10/29 01:37:26;;;;;;;8.07;5.50;;;8.90;99.90;;;;;;4838927;29;20176;-90
2023/10/29 01:39:52;;;;;;;6.83;4.90;;;8.90;99.90;;;;;;4815368;29;20217;-90
2023/10/29 01:42:18;;;;;;;7.73;5.20;;;8.90;99.90;;;;;;4833313;29;20250;-89
2023/10/29 01:44:44;;;;;;;7.93;4.80;;;8.90;99.90;;;;;;4948892;28;20241;-89
2023/10/29 01:47:09;;;;;;;7.57;4.63;;;8.80;99.90;;;;;;4995236;28;20179;-90
2023/10/29 01:49:35;;;;;;;7.17;4.53;;;8.80;99.90;;;;;;4975883;28;20302;-90
2023/10/29 01:52:04;;;;;;;9.73;4.70;;;8.70;99.90;;;;;;4966115;28;20207;-90
2023/10/29 01:54:30;;;;;;;8.73;4.83;;;8.70;99.90;;;;;;4960866;28;20327;-90
2023/10/29 01:56:57;;;;;;;6.87;4.73;;;8.70;99.90;;;;;;4975909;28;20180;-90
2023/10/29 01:59:23;;;;;;;8.60;4.80;;;8.60;99.90;;;;;;4984701;28;20310;-90
2023/10/29 02:01:50;;;;;;;7.60;5.00;;;8.60;99.90;;;;;;4966733;28;20291;-89
2023/10/29 02:04:16;;;;;;;7.87;4.90;;;8.50;99.90;;;;;;4983697;28;20215;-90
2023/10/29 02:06:42;;;;;;;7.37;4.70;;;8.50;99.90;;;;;;4940424;28;20216;-90
2023/10/29 02:09:09;;;;;;;6.47;5.23;;;8.50;99.90;;;;;;4969923;28;20214;-90
2023/10/29 02:11:39;;;;;;;7.00;5.27;;;8.50;99.90;;;;;;4968138;28;20207;-89
2023/10/29 02:14:06;;;;;;;7.73;4.60;;;8.50;99.90;;;;;;4976189;28;20187;-89
2023/10/29 02:16:32;;;;;;;6.50;4.73;;;8.50;99.90;;;;;;4995359;28;20188;-89
2023/10/29 02:19:01;;;;;;;17.73;5.67;;;8.30;99.90;;;;;;4987440;28;20188;-89
2023/10/29 02:21:36;;;;;;;8.43;5.13;;;8.20;99.90;;;;;;4978483;28;20230;-89
2023/10/29 02:28:46;;;;;;;6.87;5.00;;;8.20;99.90;;;;;;4997465;28;20255;-89
2023/10/29 02:31:33;;;;;;;7.60;4.70;;;8.20;99.90;;;;;;4943468;28;20328;-89
2023/10/29 02:34:41;;;;;;;6.67;4.50;;;8.10;99.90;;;;;;4986555;28;20194;-89
2023/10/29 02:37:26;;;;;;;7.43;4.20;;;8.10;99.90;;;;;;4980655;28;20203;-89
2023/10/29 02:40:53;;;;;;;6.83;4.70;;;8.00;99.90;;;;;;5014235;28;20262;-90
2023/10/29 02:51:12;;;;;;;7.27;5.47;;;8.00;99.90;;;;;;4995160;28;20194;-89
2023/10/29 02:53:46;;;;;;;9.30;5.10;;;8.00;99.90;;;;;;4973968;28;20245;-89
2023/10/29 02:56:21;;;;;;;9.53;5.20;;;7.90;99.90;;;;;;4974945;28;20192;-89
2023/10/29 02:58:46;;;;;;;6.57;4.93;;;7.90;99.90;;;;;;4965825;28;20191;-89
2023/10/29 03:01:29;;;;;;;6.80;5.23;;;7.90;99.90;;;;;;4980310;28;20200;-89
2023/10/29 03:04:46;;;;;;;8.37;5.47;;;7.90;99.90;;;;;;4956079;28;20231;-89
2023/10/29 03:07:17;;;;;;;8.17;4.53;;;7.90;99.90;;;;;;4926262;29;20205;-90
2023/10/29 03:09:52;;;;;;;11.50;4.43;;;7.90;99.90;;;;;;4952074;28;20205;-90
2023/10/29 03:12:31;;;;;;;6.70;4.70;;;7.90;99.90;;;;;;4922539;29;20213;-89
2023/10/29 03:15:12;;;;;;;6.50;4.57;;;7.90;99.90;;;;;;4938162;29;20204;-89
2023/10/29 03:17:44;;;;;;;6.67;4.73;;;7.80;99.90;;;;;;4937779;29;20280;-88
2023/10/29 03:20:16;;;;;;;6.23;4.70;;;7.80;99.90;;;;;;4922999;29;20194;-89
2023/10/29 03:23:31;;;;;;;4.63;3.93;;;7.70;99.90;;;;;;4930311;29;20288;-89
2023/10/29 03:26:13;;;;;;;4.30;3.90;;;7.70;99.90;;;;;;4922475;29;20477;-89
2023/10/29 03:28:41;;;;;;;5.53;3.97;;;7.70;99.90;;;;;;4946508;29;20311;-90
2023/10/29 03:31:28;;;;;;;5.07;3.93;;;7.70;99.90;;;;;;4915111;29;20218;-89
2023/10/29 03:34:26;;;;;;;9.10;4.20;;;7.70;99.90;;;;;;4908651;29;20191;-90
2023/10/29 03:37:13;;;;;;;7.77;4.43;;;7.70;99.90;;;;;;4857413;29;20211;-90
2023/10/29 03:39:42;;;;;;;6.60;4.00;;;7.70;99.90;;;;;;4903199;29;20283;-89
2023/10/29 03:42:13;;;;;;;4.70;3.80;;;7.60;99.90;;;;;;4927982;29;20277;-89
2023/10/29 03:44:42;;;;;;;8.17;4.63;;;7.70;99.90;;;;;;4977118;28;20240;-90
2023/10/29 03:47:29;;;;;;;7.57;4.17;;;7.60;99.90;;;;;;4980443;28;20220;-90
2023/10/29 03:49:55;;;;;;;6.30;4.43;;;7.60;99.90;;;;;;4977965;28;20211;-90
2023/10/29 03:52:30;;;;;;;4.47;4.03;;;7.70;99.90;;;;;;4990996;28;20276;-89
2023/10/29 03:55:39;;;;;;;7.67;4.97;;;7.70;99.90;;;;;;4991987;28;20188;-89
2023/10/29 03:58:36;;;;;;;9.60;4.77;;;7.60;99.90;;;;;;4969038;28;20184;-90
2023/10/29 04:01:11;;;;;;;8.10;4.63;;;7.60;99.90;;;;;;4968522;28;20207;-90
2023/10/29 04:03:46;;;;;;;6.30;4.30;;;7.50;99.90;;;;;;4970580;28;20179;-89
2023/10/29 04:13:48;;;;;;;8.20;5.33;;;7.40;99.90;;;;;;4980931;28;20174;-89
2023/10/29 04:16:39;;;;;;;4.90;3.83;;;7.50;99.90;;;;;;4980362;28;20183;-90
2023/10/29 04:19:05;;;;;;;6.73;4.20;;;7.50;99.90;;;;;;4988353;28;20259;-88
2023/10/29 04:21:34;;;;;;;5.23;3.97;;;7.50;99.90;;;;;;4971651;28;20301;-89
2023/10/29 04:23:59;;;;;;;5.60;4.07;;;7.50;99.90;;;;;;4995956;28;20183;-88
2023/10/29 04:26:25;;;;;;;6.97;4.03;;;7.40;99.90;;;;;;4996162;28;20187;-89
2023/10/29 04:28:51;;;;;;;6.53;3.93;;;7.40;99.90;;;;;;4992946;28;20268;-89
2023/10/29 04:31:17;;;;;;;6.27;4.10;;;7.40;99.90;;;;;;4976630;28;20212;-88
2023/10/29 04:33:45;;;;;;;5.40;3.93;;;7.30;99.90;;;;;;4977003;28;20259;-88
2023/10/29 04:37:06;;;;;;;5.07;3.70;;;7.30;99.90;;;;;;4976915;28;20184;-89
2023/10/29 04:39:35;;;;;;;5.23;3.90;;;7.30;99.90;;;;;;4992633;28;20290;-88
2023/10/29 04:42:01;;;;;;;6.40;3.77;;;7.20;99.90;;;;;;4967506;28;20208;-87
2023/10/29 04:44:27;;;;;;;5.03;3.30;;;7.20;99.90;;;;;;4984453;28;20199;-88
2023/10/29 04:46:53;;;;;;;6.87;3.20;;;7.10;99.90;;;;;;4988275;28;20183;-89
2023/10/29 04:49:19;;;;;;;5.57;3.10;;;7.20;99.90;;;;;;4988327;28;20207;-89
2023/10/29 04:51:45;;;;;;;5.03;3.27;;;7.20;99.90;;;;;;5003100;28;20259;-88
2023/10/29 04:54:11;;;;;;;5.57;2.90;;;7.20;99.90;;;;;;4976837;28;20180;-88
2023/10/29 04:56:37;;;;;;;5.63;2.87;;;7.30;99.90;;;;;;4977996;28;20184;-89
2023/10/29 04:59:03;;;;;;;5.97;3.03;;;7.40;99.90;;;;;;5013459;28;20184;-88
2023/10/29 05:01:29;;;;;;;5.43;3.07;;;7.40;99.90;;;;;;4963775;28;20208;-88
2023/10/29 05:03:55;;;;;;;5.30;3.37;;;7.40;99.90;;;;;;4960609;28;20211;-88
2023/10/29 05:06:21;;;;;;;6.77;3.03;;;7.40;99.90;;;;;;4960459;28;20698;-89
2023/10/29 05:08:47;;;;;;;9.37;3.30;;;7.50;99.90;;;;;;4976371;28;20262;-88
2023/10/29 05:11:13;;;;;;;4.87;3.47;;;7.50;99.90;;;;;;4992322;23;20204;-33
2023/10/29 05:13:40;;;;;;;4.23;3.33;;;7.50;99.90;;;;;;4980097;28;20682;-33
2023/10/29 05:16:07;;;;;;;4.60;3.90;;;7.50;99.90;;;;;;4975697;28;20278;-33
2023/10/29 05:18:33;;;;;;;4.93;3.70;;;7.50;99.90;;;;;;4980314;28;20187;-34
2023/10/29 05:20:59;;;;;;;7.10;4.03;;;7.50;99.90;;;;;;4971131;28;20268;-34
2023/10/29 05:23:26;;;;;;;5.53;3.60;;;7.50;99.90;;;;;;4977518;28;20187;-33
2023/10/29 05:28:26;;;;;;;4.30;3.17;;;7.50;99.90;;;;;;5011796;28;20242;-40
2023/10/29 05:30:53;;;;;;;3.30;3.00;;;7.50;99.90;;;;;;5010556;28;20665;-39
2023/10/29 05:33:19;;;;;;;5.30;2.90;;;7.50;99.90;;;;;;5021469;28;20187;-39
2023/10/29 05:35:45;;;;;;;3.30;2.90;;;7.50;99.90;;;;;;5026110;28;20208;-38
2023/10/29 05:38:12;;;;;;;4.73;2.80;;;7.50;99.90;;;;;;5009832;28;20274;-39
2023/10/29 05:40:38;;;;;;;3.60;3.20;;;7.50;99.90;;;;;;5009289;28;20254;-40
2023/10/29 05:43:04;;;;;;;4.60;3.10;;;7.50;99.90;;;;;;5006775;28;20194;-37
2023/10/29 05:45:30;;;;;;;3.70;2.83;;;7.60;99.90;;;;;;5003141;28;20265;-40
2023/10/29 05:47:56;;;;;;;5.10;3.93;;;7.60;99.90;;;;;;5001392;28;20183;-37
2023/10/29 05:50:23;;;;;;;4.43;3.63;;;7.60;99.90;;;;;;5001735;28;20210;-40
2023/10/29 05:52:49;;;;;;;5.43;3.70;;;7.60;99.90;;;;;;4986120;28;20238;-39
2023/10/29 05:55:15;;;;;;;4.03;3.27;;;7.70;99.90;;;;;;4986578;28;20199;-39
2023/10/29 05:57:41;;;;;;;4.80;3.23;;;7.70;99.90;;;;;;5000872;28;20722;-40
2023/10/29 06:00:07;;;;;;;3.93;3.37;;;7.70;99.90;;;;;;4999481;28;20184;-38
2023/10/29 06:02:38;;;;;;;4.67;3.17;;;7.80;99.90;;;;;;5003274;28;20191;-39
2023/10/29 06:05:05;;;;;;;3.87;2.93;;;7.80;99.90;;;;;;5022072;28;20493;-39
2023/10/29 06:07:31;;;;;;;5.67;3.47;;;7.80;99.90;;;;;;4980386;28;20195;-38
2023/10/29 06:09:57;;;;;;;4.23;3.30;;;7.80;99.90;;;;;;5007264;28;20306;-38
2023/10/29 06:12:23;;;;;;;3.83;3.40;;;7.80;99.90;;;;;;4990121;28;20203;-35
2023/10/29 06:14:49;;;;;;;7.73;4.20;;;7.80;99.90;;;;;;4998801;28;20208;-40
2023/10/29 06:17:16;;;;;;;9.60;4.93;;;7.80;99.90;;;;;;5013062;28;20202;-40
2023/10/29 06:19:42;;;;;;;5.50;4.20;;;7.80;99.90;;;;;;5022772;28;20194;-40
2023/10/29 06:22:10;;;;;;;3.87;3.33;;;7.80;99.90;;;;;;5012560;28;20179;-40
2023/10/29 06:24:36;;;;;;;8.00;3.90;;;7.80;99.90;;;;;;5004453;28;20203;-35
2023/10/29 06:27:02;;;;;;;7.67;4.77;;;7.80;99.90;;;;;;5011858;28;20345;-33
2023/10/29 06:29:28;;;;;;;7.83;4.30;;;7.80;99.90;;;;;;5011540;28;20280;-40
2023/10/29 06:31:54;;;;;;;8.67;5.03;;;7.90;99.90;;;;;;5013834;28;20171;-37
2023/10/29 06:34:21;;;;;;;7.00;4.87;;;7.90;99.90;;;;;;5018853;28;20206;-39
2023/10/29 06:36:47;;;;;;;9.57;5.50;;;7.90;99.90;;;;;;5003876;28;20187;-40
2023/10/29 06:39:13;;;;;;;9.63;6.57;;;8.00;99.90;;;;;;5012839;28;20186;-39
2023/10/29 06:41:39;;;;;;;7.23;4.70;;;8.00;99.90;;;;;;5012314;28;20186;-36
2023/10/29 06:44:05;;;;;;;22.97;9.73;;;8.10;99.90;;;;;;5012756;28;20187;-39
2023/10/29 06:46:31;;;;;;;14.23;6.60;;;8.20;99.90;;;;;;5019933;28;20193;-39
2023/10/29 06:48:58;;;;;;;10.30;5.30;;;8.20;99.90;;;;;;4998862;28;20214;-38
2023/10/29 06:51:23;;;;;;;6.27;4.20;;;8.30;99.90;;;;;;5009312;28;20285;-38
2023/10/29 06:53:49;;;;;;;6.00;3.60;;;8.30;99.90;;;;;;5018819;28;20262;-37
2023/10/29 06:56:15;;;;;;;5.90;3.67;;;8.40;99.90;;;;;;5007236;28;20188;-39
2023/10/29 06:58:41;;;;;;;6.50;5.27;;;8.40;99.90;;;;;;5001542;28;20212;-39
2023/10/29 07:01:11;;;;;;;10.83;6.40;;;8.50;99.90;;;;;;4998497;28;20641;-39
2023/10/29 07:03:38;;;;;;;10.00;6.43;;;8.50;99.90;;;;;;4987007;28;20227;-40
2023/10/29 07:06:08;;;;;;;10.37;5.83;;;8.60;99.90;;;;;;5004613;28;20206;-40
2023/10/29 07:08:35;;;;;;;17.53;8.27;;;8.60;99.90;;;;;;5001787;28;20306;-40
2023/10/29 07:11:09;;;;;;;28.57;10.90;;;8.60;99.90;;;;;;4986763;28;20254;-40
2023/10/29 07:13:35;;;;;;;34.10;13.97;;;8.60;99.90;;;;;;5016006;28;20246;-38
2023/10/29 07:16:02;;;;;;;28.63;13.47;;;8.70;99.90;;;;;;5001968;28;20215;-40
2023/10/29 07:18:28;;;;;;;22.13;10.07;;;8.70;99.90;;;;;;5007452;28;20262;-35
2023/10/29 07:20:59;;;;;;;18.27;9.00;;;8.80;99.90;;;;;;4989547;28;20274;-34
2023/10/29 07:23:24;;;;;;;15.23;8.30;;;8.80;99.90;;;;;;5001072;28;20202;-39
2023/10/29 07:25:51;;;;;;;11.80;6.90;;;8.80;99.90;;;;;;4987520;28;20235;-40
2023/10/29 07:28:17;;;;;;;13.97;9.40;;;8.90;99.90;;;;;;5009769;28;20202;-36
2023/10/29 07:30:44;;;;;;;19.90;13.57;;;8.90;99.90;;;;;;5009213;28;20191;-38
2023/10/29 07:33:10;;;;;;;12.10;7.77;;;8.90;99.90;;;;;;5011464;28;20179;-40
2023/10/29 07:35:37;;;;;;;9.53;6.50;;;8.90;99.90;;;;;;5004249;28;20208;-40
2023/10/29 07:38:03;;;;;;;14.77;10.77;;;9.00;99.90;;;;;;5012343;28;20261;-36
2023/10/29 07:40:28;;;;;;;16.57;11.47;;;9.00;99.90;;;;;;5013127;28;20283;-40
2023/10/29 07:42:54;;;;;;;12.80;8.30;;;9.00;99.90;;;;;;5010065;28;20183;-37
2023/10/29 07:45:20;;;;;;;10.33;5.80;;;9.10;99.90;;;;;;5011583;28;20245;-40
2023/10/29 07:47:46;;;;;;;8.23;6.00;;;9.10;99.90;;;;;;5011227;28;20218;-35
2023/10/29 07:50:11;;;;;;;8.13;6.50;;;9.20;99.90;;;;;;5009522;28;20250;-35
2023/10/29 07:52:39;;;;;;;7.53;5.10;;;9.20;99.90;;;;;;4998272;28;20242;-37
2023/10/29 07:55:07;;;;;;;6.20;4.67;;;9.30;99.90;;;;;;5011154;28;20289;-40
2023/10/29 07:57:33;;;;;;;4.33;3.93;;;9.30;99.90;;;;;;5011309;28;20190;-37
2023/10/29 07:59:59;;;;;;;6.60;4.27;;;9.40;99.90;;;;;;5011163;28;20184;-38
2023/10/29 08:02:25;;;;;;;9.00;4.80;;;9.40;99.90;;;;;;5005888;28;20192;-39
2023/10/29 08:04:51;;;;;;;9.80;5.40;;;9.50;99.90;;;;;;5002792;28;20211;-38
2023/10/29 08:07:17;;;;;;;6.53;5.07;;;9.60;99.90;;;;;;5007058;28;20276;-38
2023/10/29 08:09:43;;;;;;;5.97;4.50;;;9.60;99.90;;;;;;5024642;28;20211;-36
2023/10/29 08:12:10;;;;;;;6.33;4.13;;;9.70;99.90;;;;;;5003053;28;20192;-40
2023/10/29 08:14:36;;;;;;;7.90;4.83;;;9.70;99.90;;;;;;5005151;28;20199;-37
2023/10/29 08:17:03;;;;;;;7.23;5.37;;;9.80;99.90;;;;;;5002680;28;20198;-38
2023/10/29 08:19:29;;;;;;;11.47;9.33;;;9.90;99.90;;;;;;5002187;28;20217;-40
2023/10/29 08:21:58;;;;;;;17.23;13.63;;;9.90;99.90;;;;;;4997583;28;20181;-40
2023/10/29 08:24:25;;;;;;;14.40;12.07;;;9.90;99.90;;;;;;4993268;28;20228;-40
2023/10/29 08:26:52;;;;;;;11.40;8.00;;;10.00;99.90;;;;;;4978444;28;20207;-40
2023/10/29 08:29:18;;;;;;;9.50;7.50;;;10.00;99.90;;;;;;5003203;28;20212;-36
2023/10/29 08:31:43;;;;;;;7.50;6.50;;;10.10;99.90;;;;;;5002218;28;20195;-38
2023/10/29 08:34:09;;;;;;;9.63;7.07;;;10.20;99.90;;;;;;5007926;28;20252;-38
2023/10/29 08:36:35;;;;;;;7.13;5.80;;;10.30;99.90;;;;;;5005006;28;20180;-37
2023/10/29 08:39:01;;;;;;;6.90;5.67;;;10.40;99.90;;;;;;5001678;28;20184;-36
2023/10/29 08:41:27;;;;;;;9.87;6.77;;;10.60;99.90;;;;;;5000830;28;20193;-37
2023/10/29 08:43:53;;;;;;;8.10;6.63;;;10.70;99.90;;;;;;5014529;28;20263;-40
2023/10/29 08:46:19;;;;;;;8.30;6.40;;;10.70;99.90;;;;;;5001573;28;20188;-40
2023/10/29 08:48:45;;;;;;;7.87;6.13;;;10.80;99.90;;;;;;5000300;28;20256;-38
2023/10/29 08:51:11;;;;;;;7.10;5.37;;;10.90;99.90;;;;;;5003052;28;20190;-37
2023/10/29 08:53:37;;;;;;;6.57;5.23;;;10.90;99.90;;;;;;5010064;28;20190;-40
2023/10/29 08:56:04;;;;;;;4.83;3.50;;;10.90;99.90;;;;;;4999378;28;20209;-38
2023/10/29 08:58:30;;;;;;;5.00;3.67;;;11.00;99.90;;;;;;4995055;28;20225;-40
2023/10/29 09:00:57;;;;;;;4.23;3.03;;;11.00;99.90;;;;;;5007598;28;20191;-40
2023/10/29 09:03:25;;;;;;;3.83;2.90;;;11.00;99.90;;;;;;5008633;28;20265;-40
2023/10/29 09:05:51;;;;;;;3.70;3.00;;;11.10;99.90;;;;;;5007212;28;20201;-40
2023/10/29 09:08:17;;;;;;;4.93;3.23;;;11.10;99.90;;;;;;5029349;28;20273;-38
2023/10/29 09:10:45;;;;;;;3.23;2.90;;;11.20;99.90;;;;;;4988009;28;20217;-39
2023/10/29 09:13:12;;;;;;;5.80;4.17;;;11.30;99.90;;;;;;5016302;28;20244;-39
2023/10/29 09:15:38;;;;;;;6.27;4.57;;;11.30;99.90;;;;;;5009545;28;20214;-38
2023/10/29 09:18:04;;;;;;;4.37;3.80;;;11.40;99.90;;;;;;5004087;28;20624;-38
2023/10/29 09:20:30;;;;;;;5.93;3.90;;;11.40;99.90;;;;;;5006701;28;20183;-39
2023/10/29 09:22:56;;;;;;;4.60;3.80;;;11.40;99.90;;;;;;5006391;28;20180;-37
2023/10/29 09:25:22;;;;;;;4.67;3.60;;;11.50;99.90;;;;;;5003891;28;20257;-39
2023/10/29 09:27:53;;;;;;;6.20;3.73;;;11.50;99.90;;;;;;4990614;28;20230;-36
2023/10/29 09:30:19;;;;;;;5.07;3.40;;;11.50;99.90;;;;;;4983084;28;20218;-40
2023/10/29 09:32:46;;;;;;;5.57;3.50;;;11.60;99.90;;;;;;4992470;28;20197;-39
2023/10/29 09:35:12;;;;;;;3.73;2.83;;;11.60;99.90;;;;;;5006819;28;20238;-40
2023/10/29 09:37:38;;;;;;;4.73;3.10;;;11.60;99.90;;;;;;4988589;28;20182;-37
2023/10/29 09:40:08;;;;;;;4.03;3.13;;;11.50;99.90;;;;;;5014038;28;20187;-39
2023/10/29 09:42:40;;;;;;;3.83;3.10;;;11.50;99.90;;;;;;5000106;28;20238;-38
2023/10/29 09:45:07;;;;;;;4.27;3.40;;;11.50;99.90;;;;;;4991975;28;20206;-37
2023/10/29 09:47:33;;;;;;;3.63;3.33;;;11.60;99.90;;;;;;4984924;28;20210;-40
2023/10/29 09:50:03;;;;;;;4.40;3.57;;;11.60;99.90;;;;;;4998888;28;20260;-40
2023/10/29 09:52:33;;;;;;;7.70;3.70;;;11.60;99.90;;;;;;4999231;28;20206;-39
2023/10/29 09:55:03;;;;;;;4.67;2.97;;;11.60;99.90;;;;;;4984670;28;20203;-40
2023/10/29 09:57:30;;;;;;;4.40;3.70;;;11.60;99.90;;;;;;5000663;28;20189;-40
2023/10/29 09:59:58;;;;;;;5.33;3.40;;;11.60;99.90;;;;;;5028723;28;20189;-36
2023/10/29 10:02:26;;;;;;;4.67;3.27;;;11.70;99.90;;;;;;4995704;28;20191;-39
2023/10/29 10:04:52;;;;;;;4.57;3.47;;;11.80;99.90;;;;;;4984702;28;20207;-40
2023/10/29 10:07:20;;;;;;;5.57;3.37;;;11.80;99.90;;;;;;4998070;28;20184;-38
2023/10/29 10:09:54;;;;;;;6.17;4.00;;;11.90;99.90;;;;;;4984965;28;20226;-37
2023/10/29 10:12:20;;;;;;;7.03;4.73;;;12.00;99.90;;;;;;5008402;28;20269;-38
2023/10/29 10:14:47;;;;;;;5.87;4.70;;;12.10;99.90;;;;;;5003299;28;20199;-39
2023/10/29 10:17:14;;;;;;;6.07;4.43;;;12.20;99.90;;;;;;5010963;28;20214;-40
2023/10/29 10:19:40;;;;;;;3.73;3.27;;;12.30;99.90;;;;;;4993955;28;20190;-40
2023/10/29 10:22:07;;;;;;;4.23;3.30;;;12.40;99.90;;;;;;4979264;28;20176;-38
2023/10/29 10:24:47;;;;;;;4.77;3.30;;;12.60;99.90;;;;;;4994230;28;20195;-39
2023/10/29 10:27:12;;;;;;;4.57;3.97;;;12.70;99.90;;;;;;4986265;28;20195;-41
2023/10/29 10:29:38;;;;;;;7.23;3.60;;;12.80;99.90;;;;;;4990187;28;20211;-36
2023/10/29 10:32:06;;;;;;;5.13;3.67;;;12.90;99.90;;;;;;5008048;28;20184;-38
2023/10/29 10:34:34;;;;;;;5.13;3.50;;;13.00;99.90;;;;;;5000835;28;20235;-38
2023/10/29 10:37:01;;;;;;;4.47;3.73;;;13.10;99.90;;;;;;4985427;28;20265;-40
2023/10/29 10:39:33;;;;;;;5.30;3.60;;;13.10;99.90;;;;;;5002627;28;20184;-39
2023/10/29 10:42:02;;;;;;;7.87;5.97;;;13.20;99.90;;;;;;5001398;28;20192;-40
2023/10/29 10:44:29;;;;;;;6.50;5.00;;;13.30;99.90;;;;;;4999622;28;20231;-37
2023/10/29 10:46:58;;;;;;;6.27;3.70;;;13.30;99.90;;;;;;4983283;28;20187;-38
2023/10/29 10:49:24;;;;;;;4.73;3.10;;;13.40;99.90;;;;;;5002801;28;20195;-40
2023/10/29 10:51:55;;;;;;;4.40;3.47;;;13.50;99.90;;;;;;4986972;28;20179;-40
2023/10/29 10:54:26;;;;;;;5.23;3.57;;;13.50;99.90;;;;;;5001611;28;20265;-38
2023/10/29 10:56:54;;;;;;;6.20;3.60;;;13.60;99.90;;;;;;4987802;28;20221;-37
2023/10/29 10:59:21;;;;;;;4.07;3.63;;;13.70;99.90;;;;;;4985728;28;20195;-37
2023/10/29 11:01:48;;;;;;;4.73;3.77;;;13.70;99.90;;;;;;5000703;28;20195;-38
2023/10/29 11:04:15;;;;;;;6.40;4.60;;;13.70;99.90;;;;;;4990575;28;20195;-37
2023/10/29 11:06:42;;;;;;;8.17;5.17;;;13.70;99.90;;;;;;4999458;28;20188;-37
2023/10/29 11:09:13;;;;;;;6.70;5.13;;;13.70;99.90;;;;;;4989449;28;20249;-37
2023/10/29 11:11:55;;;;;;;6.10;4.40;;;13.70;99.90;;;;;;5005130;28;20199;-38
2023/10/29 11:14:24;;;;;;;5.93;4.27;;;13.70;99.90;;;;;;4998914;28;20204;-39
2023/10/29 11:16:59;;;;;;;5.87;3.83;;;13.90;99.90;;;;;;5000886;28;20176;-40
2023/10/29 11:19:44;;;;;;;5.93;4.00;;;14.20;99.90;;;;;;4986508;28;20179;-40
2023/10/29 11:22:15;;;;;;;4.37;3.73;;;14.30;99.90;;;;;;4990777;28;20194;-40
2023/10/29 11:24:41;;;;;;;3.10;2.57;;;14.40;99.90;;;;;;4996970;28;20213;-39
2023/10/29 11:27:35;;;;;;;4.33;1.33;;;14.70;99.90;;;;;;5002190;28;20191;-34
2023/10/29 11:30:14;;;;;;;1.33;1.00;;;15.10;99.90;;;;;;5002198;28;20207;-37
2023/10/29 11:32:42;;;;;;;3.30;1.33;;;15.40;99.90;;;;;;4999336;28;20264;-34
2023/10/29 11:35:14;;;;;;;9.60;5.00;;;15.90;99.90;;;;;;5011126;28;20284;-35
2023/10/29 11:37:40;;;;;;;1.30;1.20;;;16.20;99.90;;;;;;5010187;28;20186;-38
2023/10/29 11:40:25;;;;;;;1.75;1.20;;;16.60;99.90;;;;;;4978414;28;20191;-36
2023/10/29 11:42:52;;;;;;;2.00;1.48;;;16.90;99.90;;;;;;4988586;28;20184;-35
2023/10/29 11:45:27;;;;;;;2.85;1.48;;;16.90;99.90;;;;;;4995197;28;20199;-34
2023/10/29 11:48:16;;;;;;;3.92;1.40;;;17.00;99.90;;;;;;5003433;28;20213;-34
2023/10/29 11:51:14;;;;;;;1.92;1.40;;;17.10;99.90;;;;;;4985579;28;20207;-37
2023/10/29 11:53:40;;;;;;;1.63;1.00;;;17.20;99.90;;;;;;4997533;28;20302;-38
2023/10/29 11:56:10;;;;;;;1.13;1.00;;;17.30;99.90;;;;;;4998933;28;20732;-37
2023/10/29 11:58:36;;;;;;;1.48;1.10;;;17.40;99.90;;;;;;5002586;28;20214;-37
2023/10/29 12:01:03;;;;;;;1.38;0.90;;;17.50;99.90;;;;;;5014047;28;20249;-38
2023/10/29 12:03:32;;;;;;;1.45;1.00;;;17.60;99.90;;;;;;5001469;28;20187;-40
2023/10/29 12:05:58;;;;;;;1.23;1.10;;;17.80;99.90;;;;;;5005708;28;20279;-37
2023/10/29 12:08:30;;;;;;;2.13;1.50;;;18.00;99.90;;;;;;5000629;28;20207;-34
2023/10/29 12:10:56;;;;;;;2.72;1.58;;;18.30;99.90;;;;;;4999309;28;20183;-39
2023/10/29 12:13:22;;;;;;;2.05;1.40;;;18.40;99.90;;;;;;5000240;28;20242;-37
2023/10/29 12:15:56;;;;;;;1.52;1.33;;;18.40;99.90;;;;;;5008288;28;20199;-34
2023/10/29 12:18:24;;;;;;;3.00;1.30;;;18.40;99.90;;;;;;4998756;28;20187;-38
2023/10/29 12:20:50;;;;;;;3.25;1.63;;;18.30;99.90;;;;;;5033292;28;20183;-39
2023/10/29 12:23:17;;;;;;;2.00;1.60;;;18.20;99.90;;;;;;4993563;28;20191;-38
2023/10/29 12:25:43;;;;;;;1.70;1.45;;;18.20;99.90;;;;;;5030655;28;20214;-36
2023/10/29 12:28:09;;;;;;;2.60;1.48;;;18.10;99.90;;;;;;4998493;28;20203;-38
2023/10/29 12:30:49;;;;;;;1.58;1.10;;;18.10;99.90;;;;;;4996486;28;20214;-36
2023/10/29 12:33:26;;;;;;;2.22;1.30;;;18.10;99.90;;;;;;5017764;28;20214;-34
2023/10/29 12:35:54;;;;;;;1.90;1.30;;;18.10;99.90;;;;;;4998953;28;20712;-35
2023/10/29 12:38:21;;;;;;;1.85;1.50;;;18.20;99.90;;;;;;4996419;28;20190;-38
2023/10/29 12:41:06;;;;;;;1.98;1.35;;;18.30;99.90;;;;;;5000515;28;20191;-35
2023/10/29 12:43:47;;;;;;;1.27;1.00;;;18.40;99.90;;;;;;5009525;28;20225;-36
2023/10/29 12:46:17;;;;;;;2.22;1.00;;;18.40;99.90;;;;;;5000141;28;20212;-38
2023/10/29 12:49:08;;;;;;;0.88;0.80;;;18.50;99.90;;;;;;5000836;28;20267;-38
2023/10/29 12:51:41;;;;;;;1.58;0.93;;;18.70;99.90;;;;;;4984231;28;20179;-38
2023/10/29 12:54:23;;;;;;;1.13;0.75;;;18.80;99.90;;;;;;5003779;28;20175;-37
2023/10/29 12:56:53;;;;;;;1.48;0.80;;;18.80;99.90;;;;;;5012217;28;20179;-35
2023/10/29 12:59:27;;;;;;;0.88;0.63;;;18.80;99.90;;;;;;5000443;28;20179;-37
2023/10/29 13:01:55;;;;;;;2.42;0.70;;;18.80;99.90;;;;;;4999311;28;20179;-40
2023/10/29 13:04:25;;;;;;;1.45;0.80;;;19.00;99.90;;;;;;4997561;28;20204;-37
2023/10/29 13:06:53;;;;;;;1.15;0.80;;;19.30;99.90;;;;;;4995899;28;20250;-38
2023/10/29 13:09:24;;;;;;;0.80;0.70;;;19.60;99.90;;;;;;5014363;28;20208;-36
2023/10/29 13:11:54;;;;;;;1.58;0.80;;;19.80;99.90;;;;;;4999140;28;20176;-38
2023/10/29 13:14:23;;;;;;;1.02;0.75;;;20.00;99.90;;;;;;4985295;28;20202;-38
2023/10/29 13:16:52;;;;;;;0.88;0.70;;;20.20;99.90;;;;;;5001728;28;20172;-37
2023/10/29 13:19:19;;;;;;;1.85;0.70;;;20.40;99.90;;;;;;4990364;28;20196;-37
2023/10/29 13:21:45;;;;;;;1.52;1.00;;;20.40;99.90;;;;;;5002481;28;20179;-39
2023/10/29 13:24:11;;;;;;;1.38;0.80;;;20.20;99.90;;;;;;5004921;28;20205;-37
2023/10/29 13:26:37;;;;;;;1.00;0.70;;;20.10;99.90;;;;;;5001956;28;20225;-38
2023/10/29 13:29:04;;;;;;;2.22;0.90;;;20.00;99.90;;;;;;5004923;28;20211;-35
2023/10/29 13:31:30;;;;;;;0.80;0.80;;;20.10;99.90;;;;;;4986831;28;20291;-39
2023/10/29 13:33:56;;;;;;;0.77;0.63;;;20.10;99.90;;;;;;5008301;28;20187;-35
2023/10/29 13:36:22;;;;;;;0.50;0.50;;;20.10;99.90;;;;;;5014791;28;20176;-40
2023/10/29 13:38:49;;;;;;;1.10;0.82;;;19.90;99.90;;;;;;4997031;28;20184;-39
2023/10/29 13:41:15;;;;;;;0.80;0.80;;;19.70;99.90;;;;;;5001699;28;20183;-39
2023/10/29 13:43:42;;;;;;;1.75;1.00;;;19.50;99.90;;;;;;5003803;28;20262;-41
2023/10/29 13:46:08;;;;;;;1.40;1.30;;;19.40;99.90;;;;;;4986424;28;20200;-39
2023/10/29 13:48:34;;;;;;;2.40;1.55;;;19.30;99.90;;;;;;4996989;28;20217;-40
2023/10/29 13:51:04;;;;;;;1.25;1.08;;;19.10;99.90;;;;;;5006461;28;20201;-37
2023/10/29 13:53:30;;;;;;;1.20;1.10;;;19.10;99.90;;;;;;5014862;28;20184;-39
2023/10/29 13:56:10;;;;;;;1.20;1.10;;;18.90;99.90;;;;;;4989958;28;20278;-38
2023/10/29 13:58:37;;;;;;;3.10;1.33;;;18.90;99.90;;;;;;4997384;28;20175;-38